Time;durP1;ratioP1;P1;durP2;ratioP2;P2;SDS_P1;SDS_P2;PMS_P1;PMS_P2;Temp;Humidity;BMP_temperature;BMP_pressure;BME280_temperature;BME280_humidity;BME280_pressure;Samples;Min_cycle;Max_cycle;Signal;HPM_P1;HPM_P2
2023/03/28 13:03:37;;;;;;;7.70;6.40;;;;;;;;;;5018207;23;20495;-69
2023/03/28 13:06:25;;;;;;;2.30;1.20;;;;;;;;;;4955354;29;20462;-68
2023/03/28 13:09:09;;;;;;;0.90;0.90;;;;;;;;;;4956193;29;20455;-69
2023/03/28 13:11:54;;;;;;;1.40;0.90;;;;;;;;;;4956509;29;20436;-69
2023/03/28 13:14:40;;;;;;;1.30;1.20;;;;;;;;;;4956341;29;20423;-68
2023/03/28 13:17:18;;;;;;;2.13;1.30;;;;;;;;;;4955459;29;20440;-69
2023/03/28 13:19:45;;;;;;;2.93;1.30;;;;;;;;;;4955756;29;20464;-69
2023/03/28 13:22:52;;;;;;;1.30;1.30;;;;;;;;;;4962493;29;20500;-69
2023/03/28 13:25:21;;;;;;;1.37;1.37;;;;;;;;;;4891179;29;20529;-69
2023/03/28 13:27:51;;;;;;;1.77;1.50;;;;;;;;;;4892410;29;20418;-69
2023/03/28 13:30:28;;;;;;;2.10;1.27;;;;;;;;;;4926698;29;20420;-69
2023/03/28 13:32:56;;;;;;;2.03;1.40;;;;;;;;;;4955573;29;20407;-68
2023/03/28 13:35:41;;;;;;;2.37;1.93;;;;;;;;;;4955347;29;20420;-69
2023/03/28 13:38:25;;;;;;;1.13;1.13;;;;;;;;;;4955135;29;20380;-69
2023/03/28 13:40:55;;;;;;;1.20;1.20;;;;;;;;;;4955973;29;20407;-68
2023/03/28 13:43:43;;;;;;;1.67;1.57;;;;;;;;;;4955223;29;20438;-69
2023/03/28 13:46:22;;;;;;;4.63;1.10;;;;;;;;;;4954933;29;20467;-69
2023/03/28 13:48:50;;;;;;;1.30;1.20;;;;;;;;;;4955315;29;20407;-68
2023/03/28 13:51:19;;;;;;;0.80;0.80;;;;;;;;;;4955630;29;20399;-68
2023/03/28 13:53:47;;;;;;;1.03;0.80;;;;;;;;;;4955308;29;20399;-69
2023/03/28 13:56:20;;;;;;;4.30;1.40;;;;;;;;;;4954796;29;21408;-68
2023/03/28 13:58:48;;;;;;;1.53;1.53;;;;;;;;;;4954861;29;20401;-68
2023/03/28 14:01:16;;;;;;;3.50;1.27;;;;;;;;;;4949903;29;20384;-68
2023/03/28 14:03:42;;;;;;;1.33;1.10;;;;;;;;;;4954921;29;21342;-69
2023/03/28 14:06:11;;;;;;;1.60;1.00;;;;;;;;;;4936617;29;20463;-68
2023/03/28 14:08:44;;;;;;;8.07;1.20;;;;;;;;;;4955188;29;20403;-68
2023/03/28 14:11:10;;;;;;;4.27;1.20;;;;;;;;;;4954647;29;20476;-68
2023/03/28 14:13:36;;;;;;;3.13;1.20;;;;;;;;;;4955751;29;20396;-68
2023/03/28 14:16:05;;;;;;;1.07;1.07;;;;;;;;;;4949319;29;20418;-69
2023/03/28 14:18:35;;;;;;;2.30;1.10;;;;;;;;;;4954154;29;20416;-69
2023/03/28 14:21:22;;;;;;;1.60;1.23;;;;;;;;;;4954998;29;20392;-68
2023/03/28 14:24:03;;;;;;;1.10;1.10;;;;;;;;;;4950289;29;20428;-67
2023/03/28 14:26:30;;;;;;;1.47;1.20;;;;;;;;;;4954713;29;20454;-68
2023/03/28 14:29:00;;;;;;;1.33;1.23;;;;;;;;;;4955158;29;20403;-68
2023/03/28 14:31:28;;;;;;;1.50;1.50;;;;;;;;;;4955148;29;20512;-61
2023/03/28 14:33:57;;;;;;;2.20;1.93;;;;;;;;;;4951779;29;20172;-68
2023/03/28 14:36:23;;;;;;;1.87;1.20;;;;;;;;;;4953994;29;20427;-68
2023/03/28 14:38:49;;;;;;;1.60;1.40;;;;;;;;;;4949340;29;20471;-68
2023/03/28 14:41:17;;;;;;;3.13;2.33;;;;;;;;;;4954871;29;20412;-69
2023/03/28 14:43:46;;;;;;;2.03;1.30;;;;;;;;;;4954761;29;20411;-68
2023/03/28 14:46:12;;;;;;;2.77;1.63;;;;;;;;;;4954446;29;20450;-68
2023/03/28 14:48:38;;;;;;;1.60;1.60;;;;;;;;;;4954443;29;20408;-69
2023/03/28 14:51:05;;;;;;;1.50;1.33;;;;;;;;;;4955116;29;20404;-67
2023/03/28 14:53:35;;;;;;;3.40;1.70;;;;;;;;;;4954908;29;20430;-68
2023/03/28 14:56:11;;;;;;;2.13;2.03;;;;;;;;;;4954201;29;20480;-68
2023/03/28 14:58:40;;;;;;;2.77;1.40;;;;;;;;;;4949717;29;20415;-68
2023/03/28 15:01:06;;;;;;;2.00;1.87;;;;;;;;;;4954521;29;20416;-68
2023/03/28 15:03:38;;;;;;;2.10;1.57;;;;;;;;;;4954345;29;20459;-68
2023/03/28 15:06:05;;;;;;;3.07;1.50;;;;;;;;;;4953776;29;20455;-68
2023/03/28 15:08:33;;;;;;;3.70;1.70;;;;;;;;;;4955051;29;20400;-68
2023/03/28 15:11:05;;;;;;;2.10;1.60;;;;;;;;;;4956769;29;20508;-68
2023/03/28 15:13:38;;;;;;;1.53;1.53;;;;;;;;;;4953890;29;20419;-69
2023/03/28 15:16:06;;;;;;;1.77;1.67;;;;;;;;;;4954093;29;20468;-69
2023/03/28 15:18:37;;;;;;;1.67;1.57;;;;;;;;;;4957251;29;20423;-69
2023/03/28 15:21:03;;;;;;;2.73;1.40;;;;;;;;;;4955031;29;20425;-68
2023/03/28 15:23:31;;;;;;;4.57;1.60;;;;;;;;;;4953646;29;20451;-68
2023/03/28 15:26:00;;;;;;;2.43;1.83;;;;;;;;;;4955209;29;20475;-68
2023/03/28 15:28:26;;;;;;;2.50;1.50;;;;;;;;;;4956969;29;20407;-68
2023/03/28 15:30:52;;;;;;;2.10;1.60;;;;;;;;;;4955595;29;20412;-68
2023/03/28 15:33:20;;;;;;;1.10;1.10;;;;;;;;;;4957032;29;20404;-68
2023/03/28 15:35:46;;;;;;;1.17;1.17;;;;;;;;;;4955163;29;20447;-68
2023/03/28 15:38:12;;;;;;;4.27;2.70;;;;;;;;;;4957165;29;20400;-69
2023/03/28 15:40:40;;;;;;;1.13;1.13;;;;;;;;;;4953643;29;20443;-68
2023/03/28 15:43:07;;;;;;;0.80;0.80;;;;;;;;;;4952784;29;20407;-69
2023/03/28 15:45:39;;;;;;;2.50;1.07;;;;;;;;;;4957095;29;20475;-68
2023/03/28 15:48:05;;;;;;;3.70;1.00;;;;;;;;;;4956386;29;20464;-69
2023/03/28 15:50:37;;;;;;;1.27;1.20;;;;;;;;;;4954881;29;20428;-69
2023/03/28 15:53:05;;;;;;;1.20;1.20;;;;;;;;;;4956122;29;20419;-69
2023/03/28 15:55:31;;;;;;;1.43;1.33;;;;;;;;;;4955734;29;20476;-69
2023/03/28 15:57:57;;;;;;;1.23;1.20;;;;;;;;;;4956337;29;20480;-69
2023/03/28 16:00:42;;;;;;;2.47;2.20;;;;;;;;;;4938373;29;20442;-69
2023/03/28 16:03:15;;;;;;;1.47;1.37;;;;;;;;;;4955699;29;20472;-69
2023/03/28 16:05:47;;;;;;;3.87;2.00;;;;;;;;;;4953533;29;20469;-69
2023/03/28 16:08:26;;;;;;;4.50;1.50;;;;;;;;;;4951586;29;20420;-69
2023/03/28 16:10:52;;;;;;;2.50;1.60;;;;;;;;;;4955718;29;20416;-69
2023/03/28 16:13:18;;;;;;;4.63;1.73;;;;;;;;;;4956033;29;20403;-70
2023/03/28 16:15:45;;;;;;;1.47;1.40;;;;;;;;;;4955899;29;20436;-69
2023/03/28 16:18:11;;;;;;;2.93;2.73;;;;;;;;;;4949703;29;20392;-69
2023/03/28 16:20:37;;;;;;;39.60;11.57;;;;;;;;;;4955085;29;20446;-69
2023/03/28 16:23:03;;;;;;;5.90;2.87;;;;;;;;;;4955692;29;20424;-69
2023/03/28 16:25:29;;;;;;;2.57;2.47;;;;;;;;;;4953809;29;20453;-70
2023/03/28 16:27:55;;;;;;;5.70;1.80;;;;;;;;;;4954700;29;20470;-69
2023/03/28 16:30:27;;;;;;;1.80;1.80;;;;;;;;;;4953610;29;20416;-69
2023/03/28 16:32:53;;;;;;;1.10;1.10;;;;;;;;;;4955663;29;20459;-68
2023/03/28 16:35:19;;;;;;;1.70;1.67;;;;;;;;;;4938915;29;20423;-69
2023/03/28 16:37:45;;;;;;;1.63;1.10;;;;;;;;;;4955771;29;20415;-69
2023/03/28 16:40:12;;;;;;;1.30;1.20;;;;;;;;;;4956577;29;20420;-69
2023/03/28 16:42:38;;;;;;;1.40;1.30;;;;;;;;;;4957400;29;20400;-69
2023/03/28 16:45:04;;;;;;;1.57;1.47;;;;;;;;;;4956418;29;20488;-69
2023/03/28 16:47:30;;;;;;;2.83;2.63;;;;;;;;;;4956111;29;20415;-68
2023/03/28 16:49:56;;;;;;;2.57;2.27;;;;;;;;;;4956233;29;20404;-69
2023/03/28 16:52:22;;;;;;;1.93;1.90;;;;;;;;;;4956592;29;20406;-69
2023/03/28 16:54:48;;;;;;;3.43;1.37;;;;;;;;;;4956391;29;20388;-69
2023/03/28 16:57:14;;;;;;;1.00;1.00;;;;;;;;;;4955140;29;20699;-69
2023/03/28 16:59:41;;;;;;;0.93;0.87;;;;;;;;;;4955480;29;20404;-69
2023/03/28 17:02:07;;;;;;;2.07;2.07;;;;;;;;;;4956306;29;20439;-69
2023/03/28 17:04:34;;;;;;;1.93;1.93;;;;;;;;;;4955771;29;20464;-69
2023/03/28 17:07:00;;;;;;;5.80;5.30;;;;;;;;;;4956033;29;20396;-69
2023/03/28 17:09:26;;;;;;;4.23;3.93;;;;;;;;;;4956371;29;20395;-69
2023/03/28 17:11:52;;;;;;;3.17;2.87;;;;;;;;;;4950955;29;20420;-69
2023/03/28 17:14:18;;;;;;;1.67;1.57;;;;;;;;;;4956560;29;20388;-69
2023/03/28 17:16:44;;;;;;;2.37;1.83;;;;;;;;;;4951279;29;20415;-69
2023/03/28 17:19:10;;;;;;;1.70;1.60;;;;;;;;;;4955764;29;20412;-69
2023/03/28 17:21:36;;;;;;;8.73;1.60;;;;;;;;;;4956397;29;20423;-69
2023/03/28 17:24:03;;;;;;;2.73;2.60;;;;;;;;;;4956173;29;20396;-69
2023/03/28 17:26:29;;;;;;;3.20;2.20;;;;;;;;;;4955694;29;20431;-69
2023/03/28 17:28:57;;;;;;;4.27;0.93;;;;;;;;;;4956368;29;20419;-69
2023/03/28 17:31:23;;;;;;;2.07;1.63;;;;;;;;;;4956218;29;20396;-68
2023/03/28 17:33:49;;;;;;;1.47;1.37;;;;;;;;;;4936896;29;20484;-68
2023/03/28 17:36:20;;;;;;;1.37;1.13;;;;;;;;;;4949839;29;20416;-68
2023/03/28 17:38:46;;;;;;;1.07;1.07;;;;;;;;;;4956000;29;20399;-68
2023/03/28 17:41:12;;;;;;;1.27;1.23;;;;;;;;;;4950774;29;20407;-68
2023/03/28 17:43:42;;;;;;;1.23;1.03;;;;;;;;;;4950432;29;20420;-69
2023/03/28 17:46:09;;;;;;;1.27;1.27;;;;;;;;;;4955222;29;20445;-68
2023/03/28 17:48:37;;;;;;;0.83;0.83;;;;;;;;;;4955686;29;20469;-68
2023/03/28 17:51:03;;;;;;;1.17;1.17;;;;;;;;;;4956251;29;20456;-68
2023/03/28 17:53:29;;;;;;;1.17;1.17;;;;;;;;;;4955771;29;20424;-68
2023/03/28 17:55:56;;;;;;;2.80;1.20;;;;;;;;;;4952583;29;20404;-69
2023/03/28 17:58:22;;;;;;;1.13;1.13;;;;;;;;;;4955650;29;20464;-68
2023/03/28 18:00:48;;;;;;;4.73;1.43;;;;;;;;;;4955739;29;20436;-68
2023/03/28 18:03:14;;;;;;;1.13;1.00;;;;;;;;;;4955018;29;20460;-68
2023/03/28 18:05:40;;;;;;;5.90;1.77;;;;;;;;;;4955273;29;21167;-68
2023/03/28 18:08:06;;;;;;;1.33;1.33;;;;;;;;;;4954504;29;20411;-68
2023/03/28 18:10:32;;;;;;;1.50;1.50;;;;;;;;;;4955157;29;20408;-68
2023/03/28 18:12:58;;;;;;;19.37;6.57;;;;;;;;;;4950058;29;20499;-68
2023/03/28 18:15:24;;;;;;;2.53;2.53;;;;;;;;;;4955068;29;20407;-69
2023/03/28 18:17:50;;;;;;;1.57;1.57;;;;;;;;;;4949162;29;20399;-68
2023/03/28 18:20:19;;;;;;;1.43;1.40;;;;;;;;;;4955439;29;20415;-68
2023/03/28 18:22:48;;;;;;;1.30;1.30;;;;;;;;;;4955372;29;21094;-68
2023/03/28 18:25:14;;;;;;;1.20;1.20;;;;;;;;;;4955243;29;20438;-68
2023/03/28 18:27:40;;;;;;;1.37;1.37;;;;;;;;;;4952007;29;20395;-68
2023/03/28 18:30:07;;;;;;;1.57;1.47;;;;;;;;;;4954802;29;20400;-68
2023/03/28 18:32:33;;;;;;;1.70;1.00;;;;;;;;;;4961067;28;20418;-69
2023/03/28 18:34:59;;;;;;;1.30;1.30;;;;;;;;;;4949957;29;20404;-69
2023/03/28 18:37:25;;;;;;;1.80;1.03;;;;;;;;;;4953918;29;20415;-68
2023/03/28 18:39:53;;;;;;;5.23;1.83;;;;;;;;;;4955208;29;20408;-68
2023/03/28 18:42:19;;;;;;;1.20;1.20;;;;;;;;;;4954635;29;20391;-69
2023/03/28 18:44:45;;;;;;;1.60;1.43;;;;;;;;;;4956051;29;20474;-68
2023/03/28 18:47:11;;;;;;;5.03;1.20;;;;;;;;;;4957866;29;20514;-68
2023/03/28 18:49:37;;;;;;;1.20;1.10;;;;;;;;;;4958161;29;20459;-69
2023/03/28 18:52:03;;;;;;;1.70;1.30;;;;;;;;;;4959139;29;20388;-69
2023/03/28 18:54:30;;;;;;;1.27;1.17;;;;;;;;;;4958370;29;20399;-69
2023/03/28 18:56:57;;;;;;;1.07;1.00;;;;;;;;;;4958492;29;20392;-68
2023/03/28 18:59:22;;;;;;;1.33;1.23;;;;;;;;;;4958532;29;21275;-68
2023/03/28 19:01:50;;;;;;;2.00;1.10;;;;;;;;;;4958633;29;20455;-68
2023/03/28 19:04:16;;;;;;;1.50;1.40;;;;;;;;;;4952959;29;20483;-68
2023/03/28 19:06:43;;;;;;;4.63;4.43;;;;;;;;;;4958393;29;20411;-68
2023/03/28 19:09:10;;;;;;;3.17;2.97;;;;;;;;;;4958264;29;20424;-68
2023/03/28 19:11:36;;;;;;;2.33;2.23;;;;;;;;;;4940779;29;20423;-68
2023/03/28 19:14:02;;;;;;;2.23;2.07;;;;;;;;;;4953062;29;20439;-68
2023/03/28 19:16:28;;;;;;;2.43;2.07;;;;;;;;;;4957961;29;20416;-69
2023/03/28 19:18:54;;;;;;;1.80;1.80;;;;;;;;;;4957443;29;20446;-68
2023/03/28 19:21:20;;;;;;;1.90;1.80;;;;;;;;;;4940287;29;20427;-68
2023/03/28 19:23:47;;;;;;;1.80;1.80;;;;;;;;;;4958028;29;20412;-68
2023/03/28 19:26:14;;;;;;;1.93;1.83;;;;;;;;;;4957238;29;20475;-68
2023/03/28 19:28:41;;;;;;;2.30;2.10;;;;;;;;;;4957588;29;20411;-68
2023/03/28 19:31:08;;;;;;;2.87;2.73;;;;;;;;;;4956774;29;20395;-68
2023/03/28 19:33:39;;;;;;;3.90;3.10;;;;;;;;;;4957268;29;21064;-68
2023/03/28 19:36:05;;;;;;;7.80;1.80;;;;;;;;;;4954761;29;20475;-68
2023/03/28 19:38:32;;;;;;;2.87;1.90;;;;;;;;;;4957149;29;20395;-68
2023/03/28 19:41:01;;;;;;;1.90;1.90;;;;;;;;;;4952561;29;20739;-68
2023/03/28 19:43:29;;;;;;;2.70;2.60;;;;;;;;;;4953151;29;21237;-68
2023/03/28 19:46:00;;;;;;;5.07;3.67;;;;;;;;;;4956906;29;20443;-68
2023/03/28 19:48:26;;;;;;;4.20;3.80;;;;;;;;;;4957318;29;20460;-68
2023/03/28 19:50:52;;;;;;;6.90;4.00;;;;;;;;;;4958052;29;20388;-68
2023/03/28 19:53:18;;;;;;;6.83;3.60;;;;;;;;;;4952555;29;20418;-68
2023/03/28 19:55:50;;;;;;;3.80;3.43;;;;;;;;;;4956809;29;20408;-68
2023/03/28 19:58:16;;;;;;;3.90;3.60;;;;;;;;;;4957180;29;20595;-68
2023/03/28 20:00:42;;;;;;;4.13;3.87;;;;;;;;;;4957443;29;20428;-68
2023/03/28 20:03:08;;;;;;;3.73;3.40;;;;;;;;;;4957296;29;20435;-68
2023/03/28 20:05:39;;;;;;;4.00;3.70;;;;;;;;;;4957635;29;20668;-69
2023/03/28 20:08:07;;;;;;;7.40;4.10;;;;;;;;;;4956408;29;20400;-68
2023/03/28 20:10:37;;;;;;;3.40;3.10;;;;;;;;;;4957137;29;20424;-68
2023/03/28 20:13:03;;;;;;;3.53;3.33;;;;;;;;;;4956183;29;20404;-68
2023/03/28 20:15:29;;;;;;;2.83;2.47;;;;;;;;;;4953361;29;20424;-68
2023/03/28 20:17:55;;;;;;;2.90;2.80;;;;;;;;;;4955647;29;20408;-68
2023/03/28 20:20:22;;;;;;;11.70;3.40;;;;;;;;;;4956306;29;20404;-68
2023/03/28 20:22:48;;;;;;;6.93;3.80;;;;;;;;;;4956678;29;20388;-68
2023/03/28 20:25:16;;;;;;;3.07;2.87;;;;;;;;;;4956457;29;20454;-68
2023/03/28 20:27:42;;;;;;;3.97;3.00;;;;;;;;;;4955641;29;20419;-68
2023/03/28 20:30:09;;;;;;;2.17;1.97;;;;;;;;;;4956406;29;20478;-68
2023/03/28 20:32:36;;;;;;;2.17;2.17;;;;;;;;;;4950501;29;20851;-68
2023/03/28 20:35:02;;;;;;;3.40;2.83;;;;;;;;;;4956000;29;20396;-69
2023/03/28 20:37:28;;;;;;;8.33;2.47;;;;;;;;;;4955433;29;20407;-68
2023/03/28 20:39:54;;;;;;;2.50;2.50;;;;;;;;;;4956111;29;20418;-68
2023/03/28 20:42:20;;;;;;;2.23;2.13;;;;;;;;;;4955363;29;20434;-68
2023/03/28 20:44:46;;;;;;;2.27;2.17;;;;;;;;;;4956385;29;20444;-68
2023/03/28 20:47:19;;;;;;;4.53;1.30;;;;;;;;;;4954203;29;20423;-68
2023/03/28 20:49:46;;;;;;;1.30;1.30;;;;;;;;;;4954634;29;20392;-68
2023/03/28 20:52:13;;;;;;;2.70;1.37;;;;;;;;;;4954684;29;20412;-68
2023/03/28 20:54:39;;;;;;;2.20;2.10;;;;;;;;;;4955917;29;20388;-68
2023/03/28 20:57:05;;;;;;;2.10;1.97;;;;;;;;;;4955367;29;20423;-68
2023/03/28 20:59:33;;;;;;;1.80;1.70;;;;;;;;;;4955518;29;20407;-68
2023/03/28 21:01:59;;;;;;;1.50;1.50;;;;;;;;;;4951636;29;20545;-68
2023/03/28 21:04:26;;;;;;;2.20;2.00;;;;;;;;;;4935899;29;20484;-68
2023/03/28 21:06:56;;;;;;;2.30;1.60;;;;;;;;;;4936035;29;20451;-68
2023/03/28 21:09:22;;;;;;;4.47;2.07;;;;;;;;;;4936493;29;20396;-68
2023/03/28 21:11:48;;;;;;;3.73;3.53;;;;;;;;;;4936446;29;20469;-68
2023/03/28 21:14:14;;;;;;;2.10;2.00;;;;;;;;;;4935759;29;20754;-68
2023/03/28 21:16:41;;;;;;;2.30;1.63;;;;;;;;;;4951039;29;20419;-68
2023/03/28 21:19:07;;;;;;;2.00;2.00;;;;;;;;;;4936322;29;20396;-68
2023/03/28 21:21:33;;;;;;;2.77;2.57;;;;;;;;;;4935475;29;20405;-68
2023/03/28 21:23:59;;;;;;;2.30;2.30;;;;;;;;;;4935933;29;20416;-68
2023/03/28 21:26:25;;;;;;;2.87;2.77;;;;;;;;;;4935733;29;20436;-68
2023/03/28 21:28:52;;;;;;;6.27;2.37;;;;;;;;;;4936097;29;20465;-68
2023/03/28 21:31:19;;;;;;;2.63;2.10;;;;;;;;;;4936096;29;20416;-68
2023/03/28 21:33:45;;;;;;;4.83;2.33;;;;;;;;;;4935748;29;20401;-68
2023/03/28 21:36:12;;;;;;;1.93;1.70;;;;;;;;;;4935046;29;20420;-68
2023/03/28 21:38:39;;;;;;;2.07;1.97;;;;;;;;;;4936173;29;20413;-68
2023/03/28 21:41:06;;;;;;;2.30;2.20;;;;;;;;;;4936406;29;20408;-68
2023/03/28 21:43:35;;;;;;;7.37;2.07;;;;;;;;;;4935812;29;20393;-68
2023/03/28 21:46:01;;;;;;;3.33;3.00;;;;;;;;;;4935065;29;20445;-68
2023/03/28 21:48:28;;;;;;;3.50;3.20;;;;;;;;;;4945476;29;20442;-69
2023/03/28 21:50:57;;;;;;;3.17;2.97;;;;;;;;;;4935888;29;20405;-68
2023/03/28 21:53:24;;;;;;;3.00;2.80;;;;;;;;;;4934926;29;20401;-68
2023/03/28 21:55:51;;;;;;;3.13;2.53;;;;;;;;;;4935495;29;20432;-68
2023/03/28 21:58:17;;;;;;;2.83;2.70;;;;;;;;;;4935468;29;20409;-68
2023/03/28 22:00:43;;;;;;;3.30;2.33;;;;;;;;;;4935260;29;20409;-68
2023/03/28 22:03:09;;;;;;;3.00;2.90;;;;;;;;;;4949138;29;20450;-68
2023/03/28 22:05:38;;;;;;;3.43;2.43;;;;;;;;;;4954742;29;20448;-68
2023/03/28 22:08:04;;;;;;;2.50;2.30;;;;;;;;;;4937655;29;20408;-68
2023/03/28 22:10:34;;;;;;;2.47;2.37;;;;;;;;;;4954388;29;20394;-68
2023/03/28 22:13:00;;;;;;;6.07;1.60;;;;;;;;;;4954654;29;20428;-68
2023/03/28 22:15:26;;;;;;;2.63;2.03;;;;;;;;;;4954459;29;20388;-68
2023/03/28 22:17:56;;;;;;;2.40;2.30;;;;;;;;;;4953838;29;20419;-68
2023/03/28 22:20:23;;;;;;;2.80;1.83;;;;;;;;;;4953993;29;20376;-68
2023/03/28 22:22:49;;;;;;;1.90;1.80;;;;;;;;;;4954106;29;20435;-68
2023/03/28 22:25:15;;;;;;;1.50;1.40;;;;;;;;;;4951750;29;20455;-68
2023/03/28 22:27:42;;;;;;;2.00;1.90;;;;;;;;;;4952014;29;20422;-68
2023/03/28 22:30:09;;;;;;;1.50;1.50;;;;;;;;;;4953862;29;20435;-68
2023/03/28 22:32:36;;;;;;;1.63;1.40;;;;;;;;;;4953718;29;20380;-68
2023/03/28 22:35:02;;;;;;;10.67;1.70;;;;;;;;;;4954028;29;21323;-68
2023/03/28 22:37:29;;;;;;;1.77;1.67;;;;;;;;;;4953142;29;20481;-68
2023/03/28 22:39:55;;;;;;;1.80;1.70;;;;;;;;;;4953994;29;20464;-68
2023/03/28 22:42:21;;;;;;;2.27;2.17;;;;;;;;;;4953971;29;20428;-67
2023/03/28 22:44:47;;;;;;;3.40;2.70;;;;;;;;;;4953686;29;20455;-68
2023/03/28 22:47:13;;;;;;;2.23;2.13;;;;;;;;;;4952559;29;20408;-68
2023/03/28 22:49:39;;;;;;;2.17;2.17;;;;;;;;;;4953877;29;20403;-68
2023/03/28 22:52:05;;;;;;;5.13;2.70;;;;;;;;;;4954036;29;20459;-68
2023/03/28 22:54:32;;;;;;;2.23;2.13;;;;;;;;;;4953747;29;20416;-68
2023/03/28 22:56:59;;;;;;;4.00;2.23;;;;;;;;;;4952920;29;20427;-68
2023/03/28 22:59:25;;;;;;;3.80;2.67;;;;;;;;;;4953017;29;20404;-68
2023/03/28 23:01:52;;;;;;;2.63;2.43;;;;;;;;;;4953677;29;20448;-68
2023/03/28 23:04:18;;;;;;;2.73;2.63;;;;;;;;;;4954405;29;20419;-68
2023/03/28 23:06:44;;;;;;;3.40;3.30;;;;;;;;;;4954656;29;20439;-68
2023/03/28 23:09:11;;;;;;;4.10;2.60;;;;;;;;;;4955181;29;20395;-68
2023/03/28 23:11:38;;;;;;;2.57;2.47;;;;;;;;;;4955403;29;20456;-68
2023/03/28 23:14:04;;;;;;;2.93;2.67;;;;;;;;;;4954749;29;20388;-68
2023/03/28 23:16:32;;;;;;;2.57;2.37;;;;;;;;;;4954314;29;20404;-67
2023/03/28 23:18:59;;;;;;;3.97;3.17;;;;;;;;;;4954684;29;20400;-68
2023/03/28 23:21:25;;;;;;;5.13;4.73;;;;;;;;;;4954987;29;20431;-68
2023/03/28 23:23:52;;;;;;;9.93;5.60;;;;;;;;;;4954812;29;20419;-68
2023/03/28 23:26:18;;;;;;;6.27;5.37;;;;;;;;;;4953946;29;20467;-68
2023/03/28 23:28:44;;;;;;;6.87;5.80;;;;;;;;;;4950019;29;20415;-68
2023/03/28 23:31:10;;;;;;;11.60;8.03;;;;;;;;;;4956519;29;20408;-68
2023/03/28 23:33:36;;;;;;;12.70;7.50;;;;;;;;;;4953437;29;21364;-68
2023/03/28 23:36:03;;;;;;;9.83;6.93;;;;;;;;;;4957567;29;20406;-68
2023/03/28 23:38:29;;;;;;;9.60;7.20;;;;;;;;;;4958184;29;20396;-68
2023/03/28 23:40:55;;;;;;;4.47;4.10;;;;;;;;;;4958141;29;20427;-68
2023/03/28 23:43:21;;;;;;;4.70;3.37;;;;;;;;;;4940180;29;20432;-68
2023/03/28 23:45:47;;;;;;;4.17;3.10;;;;;;;;;;4957389;29;20442;-68
2023/03/28 23:48:13;;;;;;;3.33;3.03;;;;;;;;;;4957260;29;20396;-68
2023/03/28 23:50:39;;;;;;;3.77;2.93;;;;;;;;;;4958223;29;20388;-68
2023/03/28 23:53:05;;;;;;;9.00;4.00;;;;;;;;;;4957949;29;20392;-68
2023/03/28 23:55:31;;;;;;;4.60;3.67;;;;;;;;;;4957780;29;20416;-68
2023/03/28 23:57:58;;;;;;;5.93;4.00;;;;;;;;;;4957660;29;20399;-68
